Home, Washington
Current Conditions -  °F | °C
As of 9:53 AM on Friday 21 Nov 2014 (Local Time) from KTIW Reporting Station
Overcast Overcast  
Wind Chill: 51°   Ceiling: 4000
Heat Index: 51°   Visibility: 10mi
Dew Point: 46°   Wind: 7mph
Humidity: 83%   Direction: 180°S
Pressure: 29.69"   Gusts: NA
Location:  47.264°N, 122.772°W
Report Text: KTIW 211753Z 18006KT 10SM SCT032 BKN040 OVC055 11/08 A2969 RMK AO2 RAE42 SLP054 P0001 60002 T01060078 10106 20083 56027
Loading
Personal Weather Stations






























Interactive Weather Map New forecast layout! Learn more

10-Day Weather Forecast

Advertisements
Track Severe Weather on mobile